createdAt,value
2019-04-09T00:04:23.187Z,0.0
2019-04-09T00:14:34.193Z,0.0
2019-04-09T00:24:48.411Z,0.0
2019-04-09T00:35:02.819Z,0.0
2019-04-09T00:45:14.010Z,0.0
2019-04-09T00:55:28.829Z,0.0
2019-04-09T01:05:39.892Z,0.0
2019-04-09T01:15:51.280Z,0.0
2019-04-09T01:26:03.881Z,0.0
2019-04-09T01:36:14.894Z,0.0
2019-04-09T01:46:26.651Z,0.0
2019-04-09T01:56:40.900Z,0.0
2019-04-09T02:06:54.036Z,0.0
2019-04-09T02:17:08.182Z,0.0
2019-04-09T02:27:19.257Z,0.0
2019-04-09T02:37:32.576Z,0.0
2019-04-09T02:47:45.989Z,0.0
2019-04-09T02:58:00.427Z,0.0
2019-04-09T03:08:45.741Z,0.0
2019-04-09T03:18:56.707Z,0.0
2019-04-09T03:29:10.518Z,0.0
2019-04-09T03:39:24.534Z,0.0
2019-04-09T03:49:38.280Z,0.0
2019-04-09T03:59:51.977Z,0.0
2019-04-09T04:10:36.009Z,0.0
2019-04-09T04:20:47.833Z,0.0
2019-04-09T04:30:59.613Z,16.0
2019-04-09T04:41:14.091Z,72.0
2019-04-09T04:51:24.444Z,216.0
2019-04-09T05:01:35.996Z,468.0
2019-04-09T05:11:50.730Z,800.0
2019-04-09T05:22:36.064Z,1156.0
2019-04-09T05:32:47.821Z,1512.0
2019-04-09T05:42:59.451Z,1700.0
2019-04-09T05:53:09.683Z,2192.0
2019-04-09T06:03:21.909Z,2756.0
2019-04-09T06:13:32.349Z,3508.0
2019-04-09T06:23:45.948Z,3976.0
2019-04-09T06:33:57.257Z,4540.0
2019-04-09T06:44:10.603Z,5180.0
2019-04-09T06:54:22.047Z,5920.0
2019-04-09T07:04:35.839Z,14912.0
2019-04-09T07:14:46.994Z,7384.0
2019-04-09T07:25:00.256Z,17696.0
2019-04-09T07:35:11.738Z,20576.0
2019-04-09T07:45:24.073Z,24192.0
2019-04-09T07:56:08.328Z,28032.0
2019-04-09T08:06:21.687Z,30272.0
2019-04-09T08:16:34.003Z,35840.0
2019-04-09T08:26:45.514Z,39488.0
2019-04-09T08:36:56.787Z,40768.0
2019-04-09T08:47:07.776Z,44512.0
2019-04-09T08:57:21.056Z,47488.0
2019-04-09T09:07:34.446Z,51968.0
2019-04-09T09:17:50.229Z,46944.0
2019-04-09T09:27:59.514Z,55264.0
2019-04-09T09:38:13.106Z,59168.0
2019-04-09T09:48:24.878Z,50848.0
2019-04-09T09:58:35.921Z,60800.0
2019-04-09T10:09:23.003Z,54880.0
2019-04-09T10:19:31.669Z,62144.0
2019-04-09T10:29:42.187Z,67712.0
2019-04-09T10:40:27.773Z,54112.0
2019-04-09T10:50:41.884Z,50272.0
2019-04-09T11:00:49.837Z,55232.0
2019-04-09T11:11:04.622Z,60576.0
2019-04-09T11:21:16.310Z,67136.0
2019-04-09T11:31:26.690Z,62592.0
2019-04-09T11:41:41.106Z,48448.0
2019-04-09T11:52:26.041Z,71840.0
2019-04-09T12:03:12.776Z,60672.0
2019-04-09T12:16:38.142Z,73344.0
2019-04-09T12:56:13.482Z,63616.0
2019-04-09T13:06:36.609Z,46752.0
2019-04-09T13:16:51.684Z,52768.0
2019-04-09T13:27:02.615Z,50624.0
2019-04-09T13:37:16.715Z,57760.0
2019-04-09T13:50:25.230Z,54368.0
2019-04-09T14:03:19.533Z,24960.0
2019-04-09T14:17:03.266Z,22912.0
2019-04-09T14:27:26.431Z,21664.0
2019-04-09T14:38:46.738Z,17984.0
2019-04-09T14:49:00.324Z,21024.0
2019-04-09T15:00:09.952Z,34304.0
2019-04-09T15:12:13.380Z,24544.0
2019-04-09T15:22:28.763Z,17376.0
2019-04-09T15:33:09.407Z,15552.0
2019-04-09T15:43:22.134Z,14752.0
2019-04-09T15:53:37.110Z,8504.0
2019-04-09T16:03:48.755Z,7708.0
2019-04-09T16:15:21.139Z,6448.0
2019-04-09T16:26:08.399Z,6264.0
2019-04-09T16:36:59.950Z,4996.0
2019-04-09T16:47:51.179Z,4580.0
2019-04-09T16:58:11.362Z,3732.0
2019-04-09T17:09:19.910Z,3160.0
2019-04-09T17:20:08.252Z,2604.0
2019-04-09T17:31:34.076Z,2060.0
2019-04-09T17:42:34.427Z,1532.0
2019-04-09T17:55:47.544Z,936.0
2019-04-09T18:05:59.235Z,480.0
2019-04-09T18:16:34.187Z,208.0
2019-04-09T18:27:19.845Z,64.0
2019-04-09T18:45:39.550Z,4.0
2019-04-09T19:00:13.889Z,0.0
2019-04-09T19:24:24.730Z,0.0
2019-04-09T19:34:59.757Z,0.0
2019-04-09T19:47:13.321Z,0.0
2019-04-09T20:14:12.421Z,0.0
2019-04-09T20:36:45.471Z,0.0
2019-04-09T20:47:02.581Z,0.0
2019-04-09T21:00:22.106Z,0.0
2019-04-09T21:11:08.212Z,0.0
2019-04-09T21:22:20.732Z,0.0
2019-04-09T23:02:02.165Z,0.0
2019-04-09T23:15:47.683Z,0.0
2019-04-09T23:30:39.881Z,0.0
2019-04-09T23:58:35.516Z,0.0
